Main page
METAR-TAF:

METAR-TAF

Airports :

Dyersburg Regional Airport

Dyersburg, Tennessee, United States

latitude: 36-00N, longitude: 089-24W, elevation: 338 ft

Current weather observation

The report was made 36 minutes ago, at 00:56 UTC
Calm wind
Temperature 88°F
Humidity 66%
Pressure 29.93 in. Hg
Visibility: 10 miles
Clear sky

METAR: KDYR 250056Z AUTO 00000KT 10SM CLR 31/24 A2993 RMK AO2 SLP135 T03110239

Time: 20:32 (01:32 UTC)


TAF: missing

Weather observations and forecasts of more than 4000 airports (METAR and TAF reports).

The available stations are represented by yellow and red dots on the map.

Hover mouse over dot to see the name of the station.

Then click to see weather observations and forecasts.

To change the map : click on the green buttons with a black cross to zoom in, on the green button with a dash to zoom out, or on the green arrows for adjacent maps.


METAR-TAF: